sensor_id;sensor_type;location;lat;lon;timestamp;temperature;humidity
25108;DHT22;13090;53.422;7.670;2023-03-01T00:02:01;3.20;66.50
25108;DHT22;13090;53.422;7.670;2023-03-01T00:07:03;3.10;67.50
25108;DHT22;13090;53.422;7.670;2023-03-01T00:12:05;3.00;68.00
25108;DHT22;13090;53.422;7.670;2023-03-01T00:17:09;2.90;68.50
25108;DHT22;13090;53.422;7.670;2023-03-01T00:22:11;2.90;68.90
25108;DHT22;13090;53.422;7.670;2023-03-01T00:27:14;2.90;68.60
25108;DHT22;13090;53.422;7.670;2023-03-01T00:32:17;2.90;68.40
25108;DHT22;13090;53.422;7.670;2023-03-01T00:37:19;3.00;68.20
25108;DHT22;13090;53.422;7.670;2023-03-01T00:42:22;3.00;67.70
25108;DHT22;13090;53.422;7.670;2023-03-01T00:47:25;3.00;67.70
25108;DHT22;13090;53.422;7.670;2023-03-01T00:52:30;2.90;67.90
25108;DHT22;13090;53.422;7.670;2023-03-01T00:57:32;2.90;67.90
25108;DHT22;13090;53.422;7.670;2023-03-01T01:02:36;2.90;67.80
25108;DHT22;13090;53.422;7.670;2023-03-01T01:07:38;2.90;68.10
25108;DHT22;13090;53.422;7.670;2023-03-01T01:12:40;2.90;68.00
25108;DHT22;13090;53.422;7.670;2023-03-01T01:17:44;2.80;68.30
25108;DHT22;13090;53.422;7.670;2023-03-01T01:22:46;2.80;68.40
25108;DHT22;13090;53.422;7.670;2023-03-01T01:27:48;2.80;68.30
25108;DHT22;13090;53.422;7.670;2023-03-01T01:32:52;2.80;68.50
25108;DHT22;13090;53.422;7.670;2023-03-01T01:37:54;2.70;68.90
25108;DHT22;13090;53.422;7.670;2023-03-01T01:42:56;2.70;68.80
25108;DHT22;13090;53.422;7.670;2023-03-01T01:48:03;2.60;68.80
25108;DHT22;13090;53.422;7.670;2023-03-01T01:53:10;2.50;69.00
25108;DHT22;13090;53.422;7.670;2023-03-01T01:58:15;2.50;68.80
25108;DHT22;13090;53.422;7.670;2023-03-01T02:03:22;2.40;68.80
25108;DHT22;13090;53.422;7.670;2023-03-01T02:08:29;2.30;69.60
25108;DHT22;13090;53.422;7.670;2023-03-01T02:13:33;2.20;68.30
25108;DHT22;13090;53.422;7.670;2023-03-01T02:18:37;2.10;68.40
25108;DHT22;13090;53.422;7.670;2023-03-01T02:23:40;2.00;68.90
25108;DHT22;13090;53.422;7.670;2023-03-01T02:28:45;1.90;68.80
25108;DHT22;13090;53.422;7.670;2023-03-01T02:33:47;1.80;69.60
25108;DHT22;13090;53.422;7.670;2023-03-01T02:38:52;1.80;69.70
25108;DHT22;13090;53.422;7.670;2023-03-01T02:43:57;1.80;69.60
25108;DHT22;13090;53.422;7.670;2023-03-01T02:48:59;1.80;69.70
25108;DHT22;13090;53.422;7.670;2023-03-01T02:54:12;1.80;69.70
25108;DHT22;13090;53.422;7.670;2023-03-01T02:59:20;1.80;70.10
25108;DHT22;13090;53.422;7.670;2023-03-01T03:04:23;1.70;69.80
25108;DHT22;13090;53.422;7.670;2023-03-01T03:09:25;1.70;69.70
25108;DHT22;13090;53.422;7.670;2023-03-01T03:14:29;1.80;69.60
25108;DHT22;13090;53.422;7.670;2023-03-01T03:19:31;1.70;69.60
25108;DHT22;13090;53.422;7.670;2023-03-01T03:24:33;1.70;69.50
25108;DHT22;13090;53.422;7.670;2023-03-01T03:29:36;1.70;69.40
25108;DHT22;13090;53.422;7.670;2023-03-01T03:34:38;1.70;69.70
25108;DHT22;13090;53.422;7.670;2023-03-01T03:39:40;1.70;69.50
25108;DHT22;13090;53.422;7.670;2023-03-01T03:44:44;1.60;69.20
25108;DHT22;13090;53.422;7.670;2023-03-01T03:49:46;1.60;69.10
25108;DHT22;13090;53.422;7.670;2023-03-01T03:54:48;1.50;69.00
25108;DHT22;13090;53.422;7.670;2023-03-01T03:59:52;1.50;69.20
25108;DHT22;13090;53.422;7.670;2023-03-01T04:04:54;1.50;69.50
25108;DHT22;13090;53.422;7.670;2023-03-01T04:09:56;1.40;69.60
25108;DHT22;13090;53.422;7.670;2023-03-01T04:15:00;1.50;69.90
25108;DHT22;13090;53.422;7.670;2023-03-01T04:20:02;1.50;70.10
25108;DHT22;13090;53.422;7.670;2023-03-01T04:25:04;1.50;70.20
25108;DHT22;13090;53.422;7.670;2023-03-01T04:30:09;1.60;70.40
25108;DHT22;13090;53.422;7.670;2023-03-01T04:35:12;1.60;70.70
25108;DHT22;13090;53.422;7.670;2023-03-01T04:40:14;1.50;70.60
25108;DHT22;13090;53.422;7.670;2023-03-01T04:45:18;1.40;70.70
25108;DHT22;13090;53.422;7.670;2023-03-01T04:50:20;1.40;71.10
25108;DHT22;13090;53.422;7.670;2023-03-01T04:55:23;1.40;71.30
25108;DHT22;13090;53.422;7.670;2023-03-01T05:00:26;1.50;71.50
25108;DHT22;13090;53.422;7.670;2023-03-01T05:05:32;1.50;71.70
25108;DHT22;13090;53.422;7.670;2023-03-01T05:10:35;1.60;71.90
25108;DHT22;13090;53.422;7.670;2023-03-01T05:15:39;1.60;71.80
25108;DHT22;13090;53.422;7.670;2023-03-01T05:20:41;1.70;72.00
25108;DHT22;13090;53.422;7.670;2023-03-01T05:25:44;1.60;71.90
25108;DHT22;13090;53.422;7.670;2023-03-01T05:30:48;1.50;72.00
25108;DHT22;13090;53.422;7.670;2023-03-01T05:35:50;1.40;71.80
25108;DHT22;13090;53.422;7.670;2023-03-01T05:40:53;1.30;71.70
25108;DHT22;13090;53.422;7.670;2023-03-01T05:45:57;1.30;72.00
25108;DHT22;13090;53.422;7.670;2023-03-01T05:51:00;1.20;72.40
25108;DHT22;13090;53.422;7.670;2023-03-01T05:56:03;1.20;72.40
25108;DHT22;13090;53.422;7.670;2023-03-01T06:01:11;1.30;72.80
25108;DHT22;13090;53.422;7.670;2023-03-01T06:06:14;1.40;73.10
25108;DHT22;13090;53.422;7.670;2023-03-01T06:11:16;1.50;72.70
25108;DHT22;13090;53.422;7.670;2023-03-01T06:16:19;1.40;72.60
25108;DHT22;13090;53.422;7.670;2023-03-01T06:21:22;1.30;72.10
25108;DHT22;13090;53.422;7.670;2023-03-01T06:26:24;1.20;72.80
25108;DHT22;13090;53.422;7.670;2023-03-01T06:31:28;1.10;72.60
25108;DHT22;13090;53.422;7.670;2023-03-01T06:36:30;1.10;72.70
25108;DHT22;13090;53.422;7.670;2023-03-01T06:41:33;1.10;72.80
25108;DHT22;13090;53.422;7.670;2023-03-01T06:46:37;1.20;73.40
25108;DHT22;13090;53.422;7.670;2023-03-01T06:51:40;1.40;73.40
25108;DHT22;13090;53.422;7.670;2023-03-01T06:56:42;1.50;73.30
25108;DHT22;13090;53.422;7.670;2023-03-01T07:01:46;1.50;73.00
25108;DHT22;13090;53.422;7.670;2023-03-01T07:06:48;1.40;73.00
25108;DHT22;13090;53.422;7.670;2023-03-01T07:11:51;1.30;73.00
25108;DHT22;13090;53.422;7.670;2023-03-01T07:16:54;1.30;73.60
25108;DHT22;13090;53.422;7.670;2023-03-01T07:21:57;1.30;74.10
25108;DHT22;13090;53.422;7.670;2023-03-01T07:26:59;1.30;74.30
25108;DHT22;13090;53.422;7.670;2023-03-01T07:32:03;1.40;74.20
25108;DHT22;13090;53.422;7.670;2023-03-01T07:37:05;1.60;74.90
25108;DHT22;13090;53.422;7.670;2023-03-01T07:42:07;1.90;74.60
25108;DHT22;13090;53.422;7.670;2023-03-01T07:47:11;2.30;74.80
25108;DHT22;13090;53.422;7.670;2023-03-01T07:52:13;2.70;74.80
25108;DHT22;13090;53.422;7.670;2023-03-01T07:57:16;3.00;74.00
25108;DHT22;13090;53.422;7.670;2023-03-01T08:02:19;3.30;73.80
25108;DHT22;13090;53.422;7.670;2023-03-01T08:07:21;3.60;74.00
25108;DHT22;13090;53.422;7.670;2023-03-01T08:12:23;4.10;74.00
25108;DHT22;13090;53.422;7.670;2023-03-01T08:17:27;4.60;73.70
25108;DHT22;13090;53.422;7.670;2023-03-01T08:22:29;5.10;73.50
25108;DHT22;13090;53.422;7.670;2023-03-01T08:27:31;5.80;73.20
25108;DHT22;13090;53.422;7.670;2023-03-01T08:32:38;6.30;72.50
25108;DHT22;13090;53.422;7.670;2023-03-01T08:37:40;6.80;71.70
25108;DHT22;13090;53.422;7.670;2023-03-01T08:42:43;7.20;71.10
25108;DHT22;13090;53.422;7.670;2023-03-01T08:47:46;7.50;70.50
25108;DHT22;13090;53.422;7.670;2023-03-01T08:52:49;7.80;69.90
25108;DHT22;13090;53.422;7.670;2023-03-01T08:57:51;8.10;70.20
25108;DHT22;13090;53.422;7.670;2023-03-01T09:02:55;8.50;70.30
25108;DHT22;13090;53.422;7.670;2023-03-01T09:07:57;9.00;69.80
25108;DHT22;13090;53.422;7.670;2023-03-01T09:12:59;9.50;69.10
25108;DHT22;13090;53.422;7.670;2023-03-01T09:18:03;9.90;68.80
25108;DHT22;13090;53.422;7.670;2023-03-01T09:23:06;10.30;68.40
25108;DHT22;13090;53.422;7.670;2023-03-01T09:28:08;10.70;67.70
25108;DHT22;13090;53.422;7.670;2023-03-01T09:33:26;11.10;67.60
25108;DHT22;13090;53.422;7.670;2023-03-01T09:38:29;11.60;67.80
25108;DHT22;13090;53.422;7.670;2023-03-01T09:43:36;12.00;67.40
25108;DHT22;13090;53.422;7.670;2023-03-01T09:48:48;12.60;67.60
25108;DHT22;13090;53.422;7.670;2023-03-01T09:53:52;13.40;67.90
25108;DHT22;13090;53.422;7.670;2023-03-01T09:58:58;14.30;67.20
25108;DHT22;13090;53.422;7.670;2023-03-01T10:04:27;15.00;65.20
25108;DHT22;13090;53.422;7.670;2023-03-01T10:09:33;15.70;63.10
25108;DHT22;13090;53.422;7.670;2023-03-01T10:14:39;16.20;63.00
25108;DHT22;13090;53.422;7.670;2023-03-01T10:19:47;16.70;62.00
25108;DHT22;13090;53.422;7.670;2023-03-01T10:24:50;17.30;61.10
25108;DHT22;13090;53.422;7.670;2023-03-01T10:29:59;17.80;59.90
25108;DHT22;13090;53.422;7.670;2023-03-01T10:35:18;18.30;58.20
25108;DHT22;13090;53.422;7.670;2023-03-01T10:40:21;18.70;56.60
25108;DHT22;13090;53.422;7.670;2023-03-01T10:45:31;19.00;57.10
25108;DHT22;13090;53.422;7.670;2023-03-01T10:50:35;19.30;53.50
25108;DHT22;13090;53.422;7.670;2023-03-01T10:55:40;19.00;51.50
25108;DHT22;13090;53.422;7.670;2023-03-01T11:00:48;18.50;50.60
25108;DHT22;13090;53.422;7.670;2023-03-01T11:05:59;17.90;49.70
25108;DHT22;13090;53.422;7.670;2023-03-01T11:11:15;17.50;50.80
25108;DHT22;13090;53.422;7.670;2023-03-01T11:16:34;17.50;48.90
25108;DHT22;13090;53.422;7.670;2023-03-01T11:21:42;17.50;51.80
25108;DHT22;13090;53.422;7.670;2023-03-01T11:26:50;17.70;51.60
25108;DHT22;13090;53.422;7.670;2023-03-01T11:31:56;17.60;46.80
25108;DHT22;13090;53.422;7.670;2023-03-01T11:37:04;17.40;51.10
25108;DHT22;13090;53.422;7.670;2023-03-01T11:42:15;17.70;51.10
25108;DHT22;13090;53.422;7.670;2023-03-01T11:47:31;17.90;45.50
25108;DHT22;13090;53.422;7.670;2023-03-01T11:52:46;17.60;48.60
25108;DHT22;13090;53.422;7.670;2023-03-01T11:58:09;17.80;46.90
25108;DHT22;13090;53.422;7.670;2023-03-01T12:03:27;17.50;48.30
25108;DHT22;13090;53.422;7.670;2023-03-01T12:08:37;17.40;48.10
25108;DHT22;13090;53.422;7.670;2023-03-01T12:14:08;17.40;47.30
25108;DHT22;13090;53.422;7.670;2023-03-01T12:19:25;17.20;46.90
25108;DHT22;13090;53.422;7.670;2023-03-01T12:24:52;17.10;45.70
25108;DHT22;13090;53.422;7.670;2023-03-01T12:30:06;16.80;46.80
25108;DHT22;13090;53.422;7.670;2023-03-01T12:35:36;16.60;47.80
25108;DHT22;13090;53.422;7.670;2023-03-01T12:41:13;16.40;46.00
25108;DHT22;13090;53.422;7.670;2023-03-01T12:46:25;16.10;46.80
25108;DHT22;13090;53.422;7.670;2023-03-01T12:51:33;15.60;46.80
25108;DHT22;13090;53.422;7.670;2023-03-01T12:56:38;15.20;48.40
25108;DHT22;13090;53.422;7.670;2023-03-01T13:01:47;15.00;48.80
25108;DHT22;13090;53.422;7.670;2023-03-01T13:07:02;15.00;49.80
25108;DHT22;13090;53.422;7.670;2023-03-01T13:17:45;15.50;51.30
25108;DHT22;13090;53.422;7.670;2023-03-01T13:22:48;16.10;50.90
25108;DHT22;13090;53.422;7.670;2023-03-01T13:28:37;16.30;49.30
25108;DHT22;13090;53.422;7.670;2023-03-01T13:33:44;15.80;49.40
25108;DHT22;13090;53.422;7.670;2023-03-01T13:38:56;15.10;50.60
25108;DHT22;13090;53.422;7.670;2023-03-01T13:43:59;14.70;51.20
25108;DHT22;13090;53.422;7.670;2023-03-01T13:49:03;14.50;51.90
25108;DHT22;13090;53.422;7.670;2023-03-01T13:54:11;14.40;52.50
25108;DHT22;13090;53.422;7.670;2023-03-01T13:59:16;14.20;53.60
25108;DHT22;13090;53.422;7.670;2023-03-01T14:04:23;14.10;53.50
25108;DHT22;13090;53.422;7.670;2023-03-01T14:09:26;14.10;53.90
25108;DHT22;13090;53.422;7.670;2023-03-01T14:14:46;14.20;54.00
25108;DHT22;13090;53.422;7.670;2023-03-01T14:19:58;13.90;53.90
25108;DHT22;13090;53.422;7.670;2023-03-01T14:25:03;13.80;54.20
25108;DHT22;13090;53.422;7.670;2023-03-01T14:30:12;13.70;54.20
25108;DHT22;13090;53.422;7.670;2023-03-01T14:35:23;13.40;54.30
25108;DHT22;13090;53.422;7.670;2023-03-01T14:40:28;13.30;54.70
25108;DHT22;13090;53.422;7.670;2023-03-01T14:45:31;13.30;54.90
25108;DHT22;13090;53.422;7.670;2023-03-01T14:50:41;13.40;55.10
25108;DHT22;13090;53.422;7.670;2023-03-01T14:55:46;13.50;55.10
25108;DHT22;13090;53.422;7.670;2023-03-01T15:00:52;13.50;55.10
25108;DHT22;13090;53.422;7.670;2023-03-01T15:05:56;13.30;55.00
25108;DHT22;13090;53.422;7.670;2023-03-01T15:11:01;13.00;55.30
25108;DHT22;13090;53.422;7.670;2023-03-01T15:16:09;12.60;56.10
25108;DHT22;13090;53.422;7.670;2023-03-01T15:21:20;12.20;57.10
25108;DHT22;13090;53.422;7.670;2023-03-01T15:26:26;12.00;57.40
25108;DHT22;13090;53.422;7.670;2023-03-01T15:31:32;12.00;57.70
25108;DHT22;13090;53.422;7.670;2023-03-01T15:36:45;12.00;58.90
25108;DHT22;13090;53.422;7.670;2023-03-01T15:41:48;12.00;58.40
25108;DHT22;13090;53.422;7.670;2023-03-01T15:46:50;12.10;58.10
25108;DHT22;13090;53.422;7.670;2023-03-01T15:51:55;12.10;58.00
25108;DHT22;13090;53.422;7.670;2023-03-01T15:56:57;12.10;58.20
25108;DHT22;13090;53.422;7.670;2023-03-01T16:01:59;12.10;58.30
25108;DHT22;13090;53.422;7.670;2023-03-01T16:07:04;12.10;58.30
25108;DHT22;13090;53.422;7.670;2023-03-01T16:12:13;12.10;58.90
25108;DHT22;13090;53.422;7.670;2023-03-01T16:17:16;11.90;58.20
25108;DHT22;13090;53.422;7.670;2023-03-01T16:22:20;11.70;58.10
25108;DHT22;13090;53.422;7.670;2023-03-01T16:27:22;11.50;58.60
25108;DHT22;13090;53.422;7.670;2023-03-01T16:32:24;11.40;58.70
25108;DHT22;13090;53.422;7.670;2023-03-01T16:37:31;11.30;58.80
25108;DHT22;13090;53.422;7.670;2023-03-01T16:42:33;11.10;59.20
25108;DHT22;13090;53.422;7.670;2023-03-01T16:47:36;10.90;58.90
25108;DHT22;13090;53.422;7.670;2023-03-01T16:52:39;10.70;59.20
25108;DHT22;13090;53.422;7.670;2023-03-01T16:57:42;10.50;59.40
25108;DHT22;13090;53.422;7.670;2023-03-01T17:02:44;10.30;59.80
25108;DHT22;13090;53.422;7.670;2023-03-01T17:07:48;10.00;59.90
25108;DHT22;13090;53.422;7.670;2023-03-01T17:12:50;9.80;60.80
25108;DHT22;13090;53.422;7.670;2023-03-01T17:17:52;9.60;61.20
25108;DHT22;13090;53.422;7.670;2023-03-01T17:22:56;9.50;61.80
25108;DHT22;13090;53.422;7.670;2023-03-01T17:27:58;9.30;62.50
25108;DHT22;13090;53.422;7.670;2023-03-01T17:33:00;9.30;62.90
25108;DHT22;13090;53.422;7.670;2023-03-01T17:38:04;9.20;63.90
25108;DHT22;13090;53.422;7.670;2023-03-01T17:43:07;9.00;64.50
25108;DHT22;13090;53.422;7.670;2023-03-01T17:48:09;8.90;64.40
25108;DHT22;13090;53.422;7.670;2023-03-01T17:53:13;8.90;64.90
25108;DHT22;13090;53.422;7.670;2023-03-01T17:58:16;8.80;65.20
25108;DHT22;13090;53.422;7.670;2023-03-01T18:03:18;8.70;65.70
25108;DHT22;13090;53.422;7.670;2023-03-01T18:08:21;8.60;65.80
25108;DHT22;13090;53.422;7.670;2023-03-01T18:13:24;8.60;66.80
25108;DHT22;13090;53.422;7.670;2023-03-01T18:18:26;8.50;67.00
25108;DHT22;13090;53.422;7.670;2023-03-01T18:23:31;8.50;66.80
25108;DHT22;13090;53.422;7.670;2023-03-01T18:28:34;8.40;67.00
25108;DHT22;13090;53.422;7.670;2023-03-01T18:33:37;8.40;67.00
25108;DHT22;13090;53.422;7.670;2023-03-01T18:38:40;8.30;67.80
25108;DHT22;13090;53.422;7.670;2023-03-01T18:43:42;8.20;68.00
25108;DHT22;13090;53.422;7.670;2023-03-01T18:48:45;8.20;68.00
25108;DHT22;13090;53.422;7.670;2023-03-01T18:53:48;8.20;68.10
25108;DHT22;13090;53.422;7.670;2023-03-01T18:58:50;8.20;68.50
25108;DHT22;13090;53.422;7.670;2023-03-01T19:03:53;8.20;68.30
25108;DHT22;13090;53.422;7.670;2023-03-01T19:08:57;8.20;68.40
25108;DHT22;13090;53.422;7.670;2023-03-01T19:14:00;8.20;68.50
25108;DHT22;13090;53.422;7.670;2023-03-01T19:19:04;8.20;68.70
25108;DHT22;13090;53.422;7.670;2023-03-01T19:24:08;8.10;68.60
25108;DHT22;13090;53.422;7.670;2023-03-01T19:29:11;8.00;70.50
25108;DHT22;13090;53.422;7.670;2023-03-01T19:34:13;7.90;69.60
25108;DHT22;13090;53.422;7.670;2023-03-01T19:39:17;7.80;69.70
25108;DHT22;13090;53.422;7.670;2023-03-01T19:44:19;7.80;70.00
25108;DHT22;13090;53.422;7.670;2023-03-01T19:49:21;7.80;69.90
25108;DHT22;13090;53.422;7.670;2023-03-01T19:54:25;7.90;69.80
25108;DHT22;13090;53.422;7.670;2023-03-01T19:59:27;7.90;69.80
25108;DHT22;13090;53.422;7.670;2023-03-01T20:04:29;7.80;69.80
25108;DHT22;13090;53.422;7.670;2023-03-01T20:09:33;7.70;70.50
25108;DHT22;13090;53.422;7.670;2023-03-01T20:14:35;7.70;70.60
25108;DHT22;13090;53.422;7.670;2023-03-01T20:19:37;7.70;70.30
25108;DHT22;13090;53.422;7.670;2023-03-01T20:24:41;7.70;70.40
25108;DHT22;13090;53.422;7.670;2023-03-01T20:29:43;7.70;70.60
25108;DHT22;13090;53.422;7.670;2023-03-01T20:34:46;7.70;70.10
25108;DHT22;13090;53.422;7.670;2023-03-01T20:39:49;7.60;70.00
25108;DHT22;13090;53.422;7.670;2023-03-01T20:44:51;7.50;69.80
25108;DHT22;13090;53.422;7.670;2023-03-01T20:49:54;7.40;69.90
25108;DHT22;13090;53.422;7.670;2023-03-01T20:54:57;7.40;70.10
25108;DHT22;13090;53.422;7.670;2023-03-01T21:00:00;7.30;70.90
25108;DHT22;13090;53.422;7.670;2023-03-01T21:05:02;7.20;70.70
25108;DHT22;13090;53.422;7.670;2023-03-01T21:10:06;7.00;71.00
25108;DHT22;13090;53.422;7.670;2023-03-01T21:15:09;6.90;72.40
25108;DHT22;13090;53.422;7.670;2023-03-01T21:20:17;6.90;71.60
25108;DHT22;13090;53.422;7.670;2023-03-01T21:25:21;6.80;72.20
25108;DHT22;13090;53.422;7.670;2023-03-01T21:30:23;6.90;72.40
25108;DHT22;13090;53.422;7.670;2023-03-01T21:35:25;7.00;72.50
25108;DHT22;13090;53.422;7.670;2023-03-01T21:40:29;7.10;72.40
25108;DHT22;13090;53.422;7.670;2023-03-01T21:45:34;7.20;72.30
25108;DHT22;13090;53.422;7.670;2023-03-01T21:50:36;7.20;72.10
25108;DHT22;13090;53.422;7.670;2023-03-01T21:55:47;7.30;71.70
25108;DHT22;13090;53.422;7.670;2023-03-01T22:00:49;7.20;71.60
25108;DHT22;13090;53.422;7.670;2023-03-01T22:05:56;7.20;71.20
25108;DHT22;13090;53.422;7.670;2023-03-01T22:11:01;7.10;71.30
25108;DHT22;13090;53.422;7.670;2023-03-01T22:16:04;7.00;71.60
25108;DHT22;13090;53.422;7.670;2023-03-01T22:21:07;7.00;71.90
25108;DHT22;13090;53.422;7.670;2023-03-01T22:26:21;6.90;72.90
25108;DHT22;13090;53.422;7.670;2023-03-01T22:31:25;7.00;72.80
25108;DHT22;13090;53.422;7.670;2023-03-01T22:36:28;7.00;72.10
25108;DHT22;13090;53.422;7.670;2023-03-01T22:41:34;7.00;71.60
25108;DHT22;13090;53.422;7.670;2023-03-01T22:46:37;6.90;72.10
25108;DHT22;13090;53.422;7.670;2023-03-01T22:51:40;6.90;72.10
25108;DHT22;13090;53.422;7.670;2023-03-01T22:56:45;6.80;72.20
25108;DHT22;13090;53.422;7.670;2023-03-01T23:01:48;6.90;71.90
25108;DHT22;13090;53.422;7.670;2023-03-01T23:06:50;6.80;71.60
25108;DHT22;13090;53.422;7.670;2023-03-01T23:11:54;6.70;72.10
25108;DHT22;13090;53.422;7.670;2023-03-01T23:16:56;6.60;72.00
25108;DHT22;13090;53.422;7.670;2023-03-01T23:21:59;6.50;72.00
25108;DHT22;13090;53.422;7.670;2023-03-01T23:27:03;6.40;72.90
25108;DHT22;13090;53.422;7.670;2023-03-01T23:32:05;6.20;73.80
25108;DHT22;13090;53.422;7.670;2023-03-01T23:37:08;6.00;73.50
25108;DHT22;13090;53.422;7.670;2023-03-01T23:42:12;5.90;73.80
25108;DHT22;13090;53.422;7.670;2023-03-01T23:47:14;5.80;74.60
25108;DHT22;13090;53.422;7.670;2023-03-01T23:52:16;5.70;76.70
25108;DHT22;13090;53.422;7.670;2023-03-01T23:57:20;5.60;76.20
